Sioux City, IA (51104)

5:27 AM CDT on May 26, 2015 (GMT -0500)
Northside Jones House | | Change Station
CLOSE
Current Station
Personal Weather Station
Location: Sioux City, IA
Elevation: 1253 ft
Nearby Weather Stations

Elev 1253 ft 42.55 °N, 96.41 °W | Updated 13 minutes ago

Overcast
Overcast
60.0 °F
Feels Like 60.0 °F
N
0.0
Wind Variable Wind from WNW
Gusts 2.0 mph

Today
High -- | Low -- °F
--% Chance of Precip.
Yesterday
High -- | Low -- °F
Precip. -- in
5:54 AM 8:51 PM
First Quarter, 57% visible
Pressure 29.77 in
Visibility 3.0 miles
Clouds Scattered Clouds 400 ft
Scattered Clouds 8000 ft
Overcast 10000 ft
Dew Point 34 °F
Humidity 37%
Rainfall -999.00 in
Snow Depth Not available.
UV 0 out of 12
Pollen 2.30 out of 12
Air Quality Not available.
Flu Activity Sporadic
SPECI KSUX 261018Z 19003KT 3SM BR SCT004 SCT080 OVC100 16/15 A2977 RMK AO2 LTG DSNT S T01610150

More Conditions Fewer Conditions

Pressure 29.77 in
Visibility 3.0 miles
Clouds Scattered Clouds 400 ft
Scattered Clouds 8000 ft
Overcast 10000 ft
Dew Point 34 °F
Humidity 37%
Rainfall -999.00 in
Snow Depth Not available.
UV 0 out of 12
Pollen 2.30 out of 12
Air Quality Not available.
Flu Activity Sporadic
SPECI KSUX 261018Z 19003KT 3SM BR SCT004 SCT080 OVC100 16/15 A2977 RMK AO2 LTG DSNT S T01610150

More Conditions Fewer Conditions

10-Day Weather Forecast

Almanac

Astronomy

May. 26, 2015 Rise Set
Actual Time
Civil Twilight
Nautical Twilight
Astronomical Twilight
Moon
Length of Visible Light
Length of Day
Tomorrow will be .
, % of the Moon is Illuminated

Today's Extremes

State Highs State Lows

Community

WunderPhotos

Upload Photos

1,824,305 photos uploaded!

WunderBlogs® & News

Nearby

Air Quality

  Air Quality AQ Index Pollutant
Not available.

Snow Depth

Station Depth Elevation

Earthquake Activity

City Distance Mag. Time & Date
Minimum magnitude displayed is 2.5.

Coastal Water Temperatures

Place Temperature

Stations

Nearby Weather Stations

Station Location Temp. Windchill Dew Point Humidity Wind Precip. Elev Updated Type